TFM - Tactical Decision Aid INFO Settings
 
 

Runway Winds:

KDFW - Dallas/Fort Worth Intl

Updated at: 2144 UTC 24 Apr 2014
Latest TAF at: 2056 UTC 24 Apr 2014

TAF Board

Time2053Z24/22Z24/23Z25/00Z25/01Z25/02Z25/03Z25/04Z25/05Z25/06Z25/07Z25/08Z25/09Z25/10Z
TypeOBSPRVLPRVLPRVLPRVLPRVLPRVLPRVLPRVLPRVLPRVLPRVLPRVLPRVL
Vis10>6>6>6>6>6>6>6>6>6>6>6>6>6
Ceil----------------------------
CoverFEWFEWFEWFEWSKCSKCSKCSKCSKCSKCSKCSKCSKCSKC
FltCat--VFRVFRVFRVFRVFRVFRVFRVFRVFRVFRVFRVFRVFR
Wx----------------------------
WDir330320320320350350350350350350350350350130
WSpd181515156666666665
WGst25--------------------------
Raw TAF
KDFW 242056Z 2421/2524 32015KT P6SM FEW035
  FM250100 35006KT P6SM SKC
  FM251000 13005KT P6SM SKC


Raw METAR
KDFW 242053Z 33018G25KT 10SM FEW035 28/09 A2981 RMK AO2 PK WND 31027/2032 SLP087 T02830094 50001

TAF/METAR Board Legend

Hazard Green Yellow Red Magenta
Visibility (sm) >5 >2.99 >0.99 <=0.99
Ceiling (100 ft) >30 >9.99 >4.9 <=4.9
Wind Speed (kt) <11 <23.1 >=23.1
Wind Gust (kt) <18 <30.1 >=30.1
Weather No Wx Reported Light precipitation Moderate precipitation Heavy precipitation
Flight Category VFR MVFR IFR LIFR

Page loaded:  21:44 UTC  |   02:44 PM Pacific  |   03:44 PM Mountain  |   04:44 PM Central  |   05:44 PM Eastern

 

ADVISORIES

FORECASTS

FORECASTS

OBSERVATIONS

USER TOOLS

ABOUT US